SBBISBSP

Guest
Details From SBBI - Curitiba Bacacheri
To SBSP - Sao Paulo Congonhas
Flight Number -
Tags Decoded
Created
Modified
Stats Distance 216 nm / 400 km
Max Altitude 0 ft / 0 m
Waypoints 4
Social Downloads 1
Likes 0
Share VATSIM

Download

Looking for another format? Having issues loading an existing format? Contact us
Advertisement - Login to hide

Notes

Decoded

Route

SBBI SBCT SBGR SBSP

ID Type Via Altitude Latitude Longitude Leg Dist Tot Dist Heading (true) Name
O SBBI APT - 0 ft / 0 m -25.39926˚ -49.23469˚ - 0 nm - -
SBCT APT - 0 ft / 0 m -25.52836˚ -49.18010˚ 8 nm 8 nm 159° / 159° -
SBGR APT - 0 ft / 0 m -23.43891˚ -46.48745˚ 193 nm 201 nm 50° / 49° -
O SBSP APT - 0 ft / 0 m -23.62070˚ -46.65829˚ 14 nm 216 nm 221° / 221° -

Altitude Profile

Advertisement - Login to hide

Weather


0- 5 10 15 20 25 30 35+ Temperature / ° C

Clouds and Precipitation
Forecast for 2018-05-27 00:00 UTC. Updated an hour ago

Ground ~20,000 ft ~40,000 ft Winds

SBBI

Details ICAO SBBI (BFH)
Name Curitiba Bacacheri
Region Brazil
Timezone America/Sao_Paulo (UTC-3.0)
Stats Elevation 3,057 ft / 932 m (AMSL)
Location -25.405079° -49.232036°
Runways 1
Magnetic Variation 19.677° W

METAR

SBBI 262300Z 05004KT 9999 SCT007 BKN013 14/14 Q1025

Decode

TAF

TAF SBBI 261530Z 2618/2706 07006KT 9999 SCT025 TX19/2618Z TN12/2705Z BECMG 2623/2701 BKN006 RMK PEB

Decode

Departure Runways

ID Width Length Bearing (true) Bearing (mag) Surface Threshold Offset Overrun Length
18 98 ft / 30 m 4,591 ft / 1,399 m 157.57° 177.25° Asphalt 527 ft / 161 m 0 ft / 0 m
36 98 ft / 30 m 4,591 ft / 1,399 m 337.56° 357.24° Asphalt 350 ft / 107 m 0 ft / 0 m

SBSP

Details ICAO SBSP (CGH)
Name Sao Paulo Congonhas
Region Brazil
Timezone America/Sao_Paulo (UTC-3.0)
Stats Elevation 2,631 ft / 802 m (AMSL)
Location -23.626693° -46.655377°
Runways 2
Magnetic Variation 21.349° W

METAR

SBSP 270000Z 17007KT 9999 SCT011 BKN013 17/13 Q1025

Decode

TAF

TAF SBSP 261610Z 2618/2718 15005KT 9999 SCT030TN14/2707Z TX22/2717Z BECMG 2620/2622 BKN013 BECMG 2701/2703 11002KT SCT011 PROB30 2709/2711 BKN009 BECMG 2712/2714 14005KT BKN030 RMK PHM

Decode

Destination Runways

ID Width Length Bearing (true) Bearing (mag) Surface Threshold Offset Overrun Length
17L 147 ft / 45 m 4,726 ft / 1,441 m 147.28° 168.63° Asphalt 0 ft / 0 m 220 ft / 67 m
17R 147 ft / 45 m 6,406 ft / 1,953 m 147.39° 168.74° Asphalt 413 ft / 126 m 0 ft / 0 m
35L 147 ft / 45 m 6,406 ft / 1,953 m 327.38° 348.73° Asphalt 200 ft / 61 m 0 ft / 0 m
35R 147 ft / 45 m 4,726 ft / 1,441 m 327.28° 348.63° Asphalt 0 ft / 0 m 0 ft / 0 m

Approach Navaids

Runway Type Ident Frequency Range Bearing (true) Bearing (mag) Slope Elevation
17R Localiser ISP 109.30 MHz 18 nm / 33 km 147.03° 168.38° - 2,631 ft / 802 m (AMSL)
17R Glidescope ISP 109.30 MHz 10 nm / 19 km 147.38° 168.73° 2.90° 2,631 ft / 802 m (AMSL)
35L Localiser ICO 110.10 MHz 18 nm / 33 km 328.14° 349.49° - 2,631 ft / 802 m (AMSL)

Popular Alternatives